createdAt,value
2022-12-13T00:00:52.647Z,26.99
2022-12-13T00:03:19.315Z,27.36
2022-12-13T00:05:46.062Z,27.28
2022-12-13T00:08:12.780Z,26.98
2022-12-13T00:10:39.369Z,26.87
2022-12-13T00:13:06.112Z,26.30
2022-12-13T00:15:32.919Z,27.43
2022-12-13T00:17:59.562Z,25.89
2022-12-13T00:20:26.126Z,26.77
2022-12-13T00:22:52.923Z,26.40
2022-12-13T00:25:21.430Z,25.63
2022-12-13T00:27:48.083Z,25.82
2022-12-13T00:30:14.678Z,25.65
2022-12-13T00:32:41.214Z,26.17
2022-12-13T00:35:07.985Z,25.30
2022-12-13T00:37:34.548Z,26.09
2022-12-13T00:40:01.090Z,25.43
2022-12-13T00:42:27.603Z,25.23
2022-12-13T00:44:54.324Z,25.64
2022-12-13T00:47:22.388Z,26.34
2022-12-13T00:49:49.098Z,25.79
2022-12-13T00:52:15.753Z,25.03
2022-12-13T00:54:42.922Z,25.50
2022-12-13T00:57:09.650Z,26.54
2022-12-13T00:59:36.313Z,25.73
2022-12-13T01:02:02.963Z,26.02
2022-12-13T01:04:29.652Z,26.40
2022-12-13T01:06:56.559Z,25.36
2022-12-13T01:09:27.431Z,25.10
2022-12-13T01:11:58.788Z,26.15
2022-12-13T01:14:26.261Z,25.07
2022-12-13T01:16:55.914Z,25.08
2022-12-13T01:19:23.507Z,25.53
2022-12-13T01:21:50.139Z,25.11
2022-12-13T01:24:20.663Z,24.81
2022-12-13T01:26:47.824Z,25.66
2022-12-13T01:29:14.485Z,25.22
2022-12-13T01:31:42.024Z,25.45
2022-12-13T01:34:12.647Z,25.60
2022-12-13T01:36:40.841Z,25.89
2022-12-13T01:39:15.282Z,24.94
2022-12-13T01:41:43.027Z,25.22
2022-12-13T01:44:28.488Z,25.02
2022-12-13T01:46:55.006Z,24.49
2022-12-13T01:49:22.061Z,25.08
2022-12-13T01:51:56.810Z,24.84
2022-12-13T01:54:34.181Z,24.40
2022-12-13T01:57:04.405Z,24.63
2022-12-13T01:59:31.603Z,24.88
2022-12-13T02:02:00.606Z,25.66
2022-12-13T02:04:31.755Z,25.35
2022-12-13T02:06:58.579Z,25.69
2022-12-13T02:09:25.207Z,25.59
2022-12-13T02:11:51.788Z,26.65
2022-12-13T02:14:18.428Z,25.50
2022-12-13T02:16:53.015Z,24.77
2022-12-13T02:19:38.345Z,25.58
2022-12-13T02:22:16.816Z,25.43
2022-12-13T02:25:03.660Z,25.54
2022-12-13T02:27:42.844Z,24.92
2022-12-13T02:30:12.632Z,25.04
2022-12-13T02:33:00.965Z,24.96
2022-12-13T02:35:38.981Z,24.56
2022-12-13T02:38:21.465Z,25.35
2022-12-13T02:41:04.694Z,25.17
2022-12-13T02:43:39.018Z,25.21
2022-12-13T02:46:14.131Z,25.64
2022-12-13T02:48:42.925Z,25.05
2022-12-13T02:51:11.964Z,24.88
2022-12-13T02:53:41.236Z,25.22
2022-12-13T02:56:07.958Z,25.55
2022-12-13T02:58:37.583Z,25.51
2022-12-13T03:01:28.969Z,25.34
2022-12-13T03:03:56.236Z,26.20
2022-12-13T03:06:34.236Z,25.24
2022-12-13T03:09:07.970Z,25.37
2022-12-13T03:12:03.887Z,25.67
2022-12-13T03:14:34.028Z,25.70
2022-12-13T03:17:03.929Z,25.68
2022-12-13T03:19:30.658Z,26.04
2022-12-13T03:21:57.270Z,25.59
2022-12-13T03:24:23.811Z,24.78
2022-12-13T03:26:51.787Z,25.11
2022-12-13T03:29:23.860Z,26.25
2022-12-13T03:31:51.946Z,26.50
2022-12-13T03:34:22.475Z,26.21
2022-12-13T03:36:50.019Z,25.51
2022-12-13T03:39:16.838Z,25.52
2022-12-13T03:41:43.605Z,26.17
2022-12-13T03:44:10.416Z,25.70
2022-12-13T03:46:36.992Z,26.67
2022-12-13T03:49:03.939Z,25.31
2022-12-13T03:51:30.490Z,26.26
2022-12-13T03:53:57.092Z,25.90
2022-12-13T03:56:23.740Z,25.09
2022-12-13T03:58:50.266Z,25.84
2022-12-13T04:01:18.207Z,26.23
2022-12-13T04:03:46.955Z,26.08
2022-12-13T04:06:21.858Z,26.51
2022-12-13T04:08:51.437Z,26.12
2022-12-13T04:11:42.584Z,25.94
2022-12-13T04:14:10.266Z,26.88
2022-12-13T04:16:36.974Z,25.88
2022-12-13T04:19:03.636Z,25.72
2022-12-13T04:21:30.179Z,26.66
2022-12-13T04:23:56.847Z,26.03
2022-12-13T04:26:27.958Z,25.64
2022-12-13T04:28:54.887Z,26.32
2022-12-13T04:31:21.738Z,25.18
2022-12-13T04:33:48.548Z,25.93
2022-12-13T04:36:31.500Z,25.61
2022-12-13T04:39:00.751Z,26.13
2022-12-13T04:41:34.453Z,25.70
2022-12-13T04:44:02.054Z,25.92
2022-12-13T04:46:28.793Z,26.35
2022-12-13T04:48:55.511Z,25.26
2022-12-13T04:51:22.146Z,25.96
2022-12-13T04:53:48.753Z,25.88
2022-12-13T04:56:15.308Z,26.61
2022-12-13T04:58:41.961Z,26.47
2022-12-13T05:01:09.570Z,27.14
2022-12-13T05:03:36.334Z,26.79
2022-12-13T05:06:26.720Z,26.13
2022-12-13T05:08:54.486Z,26.67
2022-12-13T05:11:23.102Z,27.39
2022-12-13T05:13:49.914Z,26.93
2022-12-13T05:16:16.599Z,26.34
2022-12-13T05:18:43.238Z,26.33
2022-12-13T05:21:11.488Z,26.15
2022-12-13T05:23:39.027Z,27.26
2022-12-13T05:26:06.161Z,26.75
2022-12-13T05:28:33.313Z,26.61
2022-12-13T05:31:22.556Z,26.69
2022-12-13T05:33:50.579Z,27.64
2022-12-13T05:36:17.195Z,27.27
2022-12-13T05:38:43.789Z,26.84
2022-12-13T05:41:16.297Z,27.21
2022-12-13T05:43:43.879Z,27.99
2022-12-13T05:46:11.265Z,27.45
2022-12-13T05:48:37.970Z,27.48
2022-12-13T05:51:10.874Z,27.21
2022-12-13T05:53:38.752Z,27.23
2022-12-13T05:56:05.669Z,27.70
2022-12-13T05:58:36.045Z,27.88
2022-12-13T06:01:10.553Z,27.65
2022-12-13T06:03:37.392Z,28.40
2022-12-13T06:06:05.734Z,28.31
2022-12-13T06:08:33.994Z,28.64
2022-12-13T06:11:11.078Z,27.96
2022-12-13T06:13:42.443Z,28.44
2022-12-13T06:16:22.062Z,28.34
2022-12-13T06:18:55.912Z,28.93
2022-12-13T06:21:25.899Z,28.07
2022-12-13T06:23:52.513Z,28.12
2022-12-13T06:26:19.087Z,28.01
2022-12-13T06:28:45.714Z,27.11
2022-12-13T06:31:12.318Z,27.60
2022-12-13T06:33:39.136Z,27.51
2022-12-13T06:36:05.950Z,26.98
2022-12-13T06:38:32.652Z,27.18
2022-12-13T06:41:13.134Z,26.64
2022-12-13T06:43:43.940Z,27.22
2022-12-13T06:46:11.539Z,26.64
2022-12-13T06:48:40.610Z,27.72
2022-12-13T06:51:08.367Z,26.99
2022-12-13T06:53:36.151Z,26.71
2022-12-13T06:56:11.166Z,27.28
2022-12-13T06:58:37.781Z,27.11
2022-12-13T07:01:06.650Z,28.18
2022-12-13T07:03:42.351Z,28.48
2022-12-13T07:06:16.504Z,27.01
2022-12-13T07:08:44.534Z,27.43
2022-12-13T07:11:15.675Z,27.33
2022-12-13T07:13:43.243Z,27.26
2022-12-13T07:16:10.932Z,27.25
2022-12-13T07:18:37.581Z,27.84
2022-12-13T07:21:05.072Z,28.54
2022-12-13T07:23:31.615Z,28.36
2022-12-13T07:25:58.245Z,28.13
2022-12-13T07:28:24.886Z,28.29
2022-12-13T07:30:51.753Z,27.91
2022-12-13T07:33:22.599Z,28.19
2022-12-13T07:35:55.171Z,28.70
2022-12-13T07:38:22.251Z,28.33
2022-12-13T07:40:48.855Z,28.30
2022-12-13T07:43:16.141Z,27.78
2022-12-13T07:45:42.943Z,28.13
2022-12-13T07:48:09.591Z,28.26
2022-12-13T07:50:36.915Z,29.03
2022-12-13T07:53:08.468Z,28.61
2022-12-13T07:55:36.572Z,28.99
2022-12-13T07:58:04.500Z,28.26
2022-12-13T08:00:31.471Z,29.21
2022-12-13T08:03:00.561Z,30.05
2022-12-13T08:05:28.308Z,30.89
2022-12-13T08:07:55.008Z,30.16
2022-12-13T08:10:22.184Z,30.48
2022-12-13T08:12:50.158Z,30.38
2022-12-13T08:15:17.510Z,29.96
2022-12-13T08:17:44.266Z,29.10
2022-12-13T08:20:11.192Z,29.35
2022-12-13T08:22:37.731Z,30.02
2022-12-13T08:25:04.598Z,29.74
2022-12-13T08:27:31.329Z,29.37
2022-12-13T08:29:58.047Z,30.35
2022-12-13T08:32:24.789Z,30.40
2022-12-13T08:34:51.582Z,29.69
2022-12-13T08:37:19.217Z,29.82
2022-12-13T08:39:46.171Z,30.08
2022-12-13T08:42:19.319Z,30.53
2022-12-13T08:44:51.319Z,30.90
2022-12-13T08:47:25.988Z,29.64
2022-12-13T08:50:02.070Z,30.80
2022-12-13T08:52:30.657Z,31.44
2022-12-13T08:54:57.362Z,31.49
2022-12-13T08:57:23.918Z,30.87
2022-12-13T08:59:50.589Z,30.82
2022-12-13T09:02:17.655Z,30.92
2022-12-13T09:04:44.772Z,31.74
2022-12-13T09:07:11.499Z,31.78
2022-12-13T09:09:38.274Z,32.46
2022-12-13T09:12:10.277Z,31.39
2022-12-13T09:14:38.472Z,31.68
2022-12-13T09:17:14.614Z,32.40
2022-12-13T09:19:50.634Z,31.82
2022-12-13T09:22:33.185Z,32.71
2022-12-13T09:25:02.908Z,32.83
2022-12-13T09:27:30.367Z,32.67
2022-12-13T09:29:57.415Z,31.97
2022-12-13T09:32:25.296Z,33.11
2022-12-13T09:34:52.090Z,33.29
2022-12-13T09:37:23.152Z,33.04
2022-12-13T09:39:55.083Z,33.22
2022-12-13T09:42:30.705Z,33.37
2022-12-13T09:45:06.222Z,34.56
2022-12-13T09:47:51.771Z,33.93
2022-12-13T09:50:25.129Z,33.92
2022-12-13T09:52:52.977Z,33.88
2022-12-13T09:55:32.402Z,33.61
2022-12-13T09:58:05.999Z,33.40
2022-12-13T10:00:35.541Z,34.44
2022-12-13T10:03:02.670Z,34.31
2022-12-13T10:05:40.147Z,33.44
2022-12-13T10:08:21.860Z,33.91
2022-12-13T10:10:50.422Z,35.29
2022-12-13T10:13:17.059Z,34.70
2022-12-13T10:15:48.645Z,34.75
2022-12-13T10:18:22.515Z,34.11
2022-12-13T10:20:50.323Z,34.44
2022-12-13T10:23:53.050Z,34.02
2022-12-13T10:26:08.802Z,34.19
2022-12-13T10:28:42.441Z,34.27
2022-12-13T10:31:15.921Z,34.61
2022-12-13T10:33:51.841Z,33.92
2022-12-13T10:36:41.468Z,34.24
2022-12-13T10:39:16.396Z,34.14
2022-12-13T10:41:42.972Z,34.82
2022-12-13T10:44:21.479Z,33.43
2022-12-13T10:47:04.985Z,33.56
2022-12-13T10:49:38.068Z,33.26
2022-12-13T10:52:05.421Z,33.84
2022-12-13T10:54:38.654Z,33.80
2022-12-13T10:57:16.561Z,34.70
2022-12-13T10:59:44.815Z,34.42
2022-12-13T11:02:30.569Z,32.71
2022-12-13T11:04:58.365Z,33.61
2022-12-13T11:07:29.690Z,33.18
2022-12-13T11:09:57.385Z,33.42
2022-12-13T11:12:33.205Z,33.08
2022-12-13T11:15:02.250Z,33.04
2022-12-13T11:17:31.816Z,33.06
2022-12-13T11:20:01.102Z,33.67
2022-12-13T11:22:29.718Z,33.37
2022-12-13T11:25:02.484Z,33.57
2022-12-13T11:27:46.771Z,34.96
2022-12-13T11:30:23.382Z,34.40
2022-12-13T11:33:12.282Z,34.20
2022-12-13T11:35:58.574Z,34.93
2022-12-13T11:38:31.266Z,35.56
2022-12-13T11:41:11.391Z,35.71
2022-12-13T11:43:43.463Z,34.71
2022-12-13T11:46:32.304Z,34.62
2022-12-13T11:49:03.186Z,35.36
2022-12-13T11:51:46.375Z,35.64
2022-12-13T11:54:24.770Z,35.82
2022-12-13T11:57:00.065Z,36.72
2022-12-13T11:59:30.772Z,38.83
2022-12-13T12:02:07.127Z,37.06
2022-12-13T12:04:59.948Z,35.80
2022-12-13T12:07:37.593Z,36.80
2022-12-13T12:10:04.131Z,36.85
2022-12-13T12:12:36.500Z,37.52
2022-12-13T12:15:16.158Z,37.56
2022-12-13T12:17:43.962Z,36.83
2022-12-13T12:20:23.459Z,37.87
2022-12-13T12:22:50.968Z,36.65
2022-12-13T12:25:24.153Z,37.38
2022-12-13T12:27:54.074Z,36.87
2022-12-13T12:30:24.257Z,37.36
2022-12-13T12:33:11.416Z,37.05
2022-12-13T12:35:46.169Z,36.41
2022-12-13T12:38:13.293Z,35.99
2022-12-13T12:41:15.693Z,35.92
2022-12-13T12:43:39.857Z,36.20
2022-12-13T12:46:19.142Z,36.27
2022-12-13T12:49:03.498Z,36.13
2022-12-13T12:51:48.239Z,37.04
2022-12-13T12:54:17.608Z,36.87
2022-12-13T12:56:55.023Z,36.43
2022-12-13T12:59:37.431Z,36.30
2022-12-13T13:02:10.021Z,36.86
2022-12-13T13:04:42.483Z,36.55
2022-12-13T13:07:26.308Z,37.10
2022-12-13T13:09:55.319Z,37.32
2022-12-13T13:12:30.279Z,36.70
2022-12-13T13:14:57.559Z,36.35
2022-12-13T13:17:24.293Z,36.76
2022-12-13T13:20:12.225Z,36.23
2022-12-13T13:22:43.050Z,35.40
2022-12-13T13:25:31.134Z,35.76
2022-12-13T13:28:15.791Z,35.27
2022-12-13T13:31:00.786Z,35.16
2022-12-13T13:33:46.433Z,35.49
2022-12-13T13:36:31.497Z,34.83
2022-12-13T13:39:00.960Z,34.47
2022-12-13T13:41:40.771Z,34.84
2022-12-13T13:44:28.875Z,34.13
2022-12-13T13:47:10.867Z,34.20
2022-12-13T13:49:43.159Z,34.64
2022-12-13T13:52:27.904Z,33.98
2022-12-13T13:54:54.759Z,33.74
2022-12-13T13:58:08.900Z,34.00
2022-12-13T14:00:56.954Z,33.62
2022-12-13T14:03:33.504Z,33.65
2022-12-13T14:06:11.558Z,33.72
2022-12-13T14:08:56.643Z,33.92
2022-12-13T14:11:46.468Z,34.80
2022-12-13T14:14:21.606Z,33.68
2022-12-13T14:16:49.123Z,35.05
2022-12-13T14:19:37.880Z,34.12
2022-12-13T14:22:17.864Z,34.79
2022-12-13T14:24:44.506Z,34.98
2022-12-13T14:27:18.187Z,35.91
2022-12-13T14:29:48.753Z,35.10
2022-12-13T14:32:27.734Z,35.86
2022-12-13T14:34:55.417Z,35.74
2022-12-13T14:37:30.687Z,35.71
2022-12-13T14:39:58.003Z,36.07
2022-12-13T14:42:24.904Z,36.62
2022-12-13T14:44:51.899Z,36.29
2022-12-13T14:47:19.346Z,35.73
2022-12-13T14:49:50.704Z,37.77
2022-12-13T14:52:26.827Z,36.09
2022-12-13T14:54:59.576Z,36.02
2022-12-13T14:57:32.005Z,35.82
2022-12-13T15:00:00.096Z,37.45
2022-12-13T15:02:30.844Z,36.77
2022-12-13T15:05:04.013Z,37.90
2022-12-13T15:07:37.592Z,38.95
2022-12-13T15:10:19.487Z,36.60
2022-12-13T15:12:46.967Z,35.68
2022-12-13T15:15:34.237Z,36.55
2022-12-13T15:18:09.846Z,36.60
2022-12-13T15:20:41.395Z,37.87
2022-12-13T15:23:17.583Z,36.71
2022-12-13T15:25:46.656Z,37.71
2022-12-13T15:28:18.229Z,38.03
2022-12-13T15:30:48.785Z,40.23
2022-12-13T15:33:27.611Z,39.98
2022-12-13T15:36:22.121Z,38.22
2022-12-13T15:38:48.795Z,40.24
2022-12-13T15:41:17.970Z,40.51
2022-12-13T15:43:47.154Z,42.29
2022-12-13T15:46:14.097Z,40.28
2022-12-13T15:48:48.590Z,39.71
2022-12-13T15:51:28.922Z,39.76
2022-12-13T15:54:03.391Z,39.92
2022-12-13T15:56:33.028Z,39.71
2022-12-13T15:59:01.277Z,40.23
2022-12-13T16:01:33.285Z,41.39
2022-12-13T16:04:03.689Z,41.57
2022-12-13T16:06:32.802Z,40.24
2022-12-13T16:09:02.180Z,40.78
2022-12-13T16:11:39.661Z,39.88
2022-12-13T16:14:25.782Z,41.16
2022-12-13T16:16:54.010Z,39.79
2022-12-13T16:19:20.818Z,41.45
2022-12-13T16:21:47.392Z,41.88
2022-12-13T16:24:14.088Z,44.38
2022-12-13T16:26:44.266Z,44.28
2022-12-13T16:29:13.618Z,43.90
2022-12-13T16:31:40.269Z,42.67
2022-12-13T16:34:07.162Z,41.44
2022-12-13T16:36:34.322Z,44.21
2022-12-13T16:39:01.017Z,41.30
2022-12-13T16:41:28.076Z,42.04
2022-12-13T16:44:00.936Z,42.93
2022-12-13T16:47:11.591Z,43.11
2022-12-13T16:49:32.781Z,43.69
2022-12-13T16:51:59.973Z,42.31
2022-12-13T16:54:26.723Z,42.86
2022-12-13T16:56:54.121Z,41.97
2022-12-13T16:59:22.596Z,41.74
2022-12-13T17:01:50.665Z,41.83
2022-12-13T17:04:21.107Z,41.33
2022-12-13T17:06:49.956Z,41.80
2022-12-13T17:09:17.094Z,41.78
2022-12-13T17:11:43.728Z,40.30
2022-12-13T17:14:10.506Z,39.06
2022-12-13T17:16:37.667Z,40.72
2022-12-13T17:19:04.381Z,39.92
2022-12-13T17:21:30.996Z,40.94
2022-12-13T17:23:58.474Z,41.88
2022-12-13T17:26:26.558Z,41.66
2022-12-13T17:28:54.122Z,39.90
2022-12-13T17:31:21.248Z,39.29
2022-12-13T17:33:47.934Z,37.55
2022-12-13T17:36:15.458Z,38.47
2022-12-13T17:38:44.033Z,37.78
2022-12-13T17:41:10.585Z,38.80
2022-12-13T17:43:37.555Z,40.16
2022-12-13T17:46:06.560Z,39.85
2022-12-13T17:48:39.854Z,39.59
2022-12-13T17:51:08.937Z,40.85
2022-12-13T17:53:36.170Z,39.57
2022-12-13T17:56:05.860Z,38.62
2022-12-13T17:58:32.491Z,37.13
2022-12-13T18:00:59.525Z,36.94
2022-12-13T18:03:26.897Z,37.31
2022-12-13T18:05:58.012Z,37.15
2022-12-13T18:08:25.037Z,38.18
2022-12-13T18:11:15.717Z,36.28
2022-12-13T18:13:42.528Z,37.30
2022-12-13T18:16:11.269Z,37.95
2022-12-13T18:18:38.362Z,40.14
2022-12-13T18:21:06.223Z,40.15
2022-12-13T18:23:34.109Z,40.11
2022-12-13T18:26:19.390Z,40.52
2022-12-13T18:28:46.181Z,38.89
2022-12-13T18:31:18.745Z,39.52
2022-12-13T18:33:49.631Z,39.30
2022-12-13T18:36:17.625Z,37.75
2022-12-13T18:38:45.130Z,38.02
2022-12-13T18:41:14.984Z,37.67
2022-12-13T18:43:42.228Z,37.23
2022-12-13T18:46:09.483Z,37.90
2022-12-13T18:48:36.512Z,37.99
2022-12-13T18:51:05.588Z,38.79
2022-12-13T18:53:33.159Z,38.45
2022-12-13T18:56:04.970Z,36.99
2022-12-13T18:58:32.977Z,37.45
2022-12-13T19:01:00.230Z,37.50
2022-12-13T19:03:27.330Z,39.05
2022-12-13T19:05:56.571Z,39.20
2022-12-13T19:08:26.717Z,39.73
2022-12-13T19:10:54.169Z,39.20
2022-12-13T19:13:23.161Z,40.14
2022-12-13T19:19:36.170Z,37.54
2022-12-13T19:22:02.819Z,37.46
2022-12-13T19:24:29.441Z,40.35
2022-12-13T19:26:56.725Z,42.37
2022-12-13T19:29:23.330Z,39.77
2022-12-13T19:31:49.915Z,38.92
2022-12-13T19:34:16.816Z,37.99
2022-12-13T19:36:43.345Z,37.74
2022-12-13T19:39:11.731Z,37.67
2022-12-13T19:41:38.256Z,40.03
2022-12-13T19:44:05.101Z,40.27
2022-12-13T19:46:32.636Z,37.94
2022-12-13T19:48:59.334Z,36.78
2022-12-13T19:51:25.964Z,37.79
2022-12-13T19:53:52.775Z,37.03
2022-12-13T19:56:21.017Z,36.84
2022-12-13T19:58:48.613Z,37.08
2022-12-13T20:01:16.066Z,36.28
2022-12-13T20:03:45.485Z,35.17
2022-12-13T20:06:13.657Z,34.77
2022-12-13T20:08:40.794Z,35.34
2022-12-13T20:11:09.680Z,36.39
2022-12-13T20:13:37.045Z,35.43
2022-12-13T20:16:04.947Z,35.37
2022-12-13T20:18:33.992Z,34.55
2022-12-13T20:21:12.936Z,34.91
2022-12-13T20:23:41.586Z,34.26
2022-12-13T20:26:16.098Z,35.33
2022-12-13T20:28:42.675Z,34.53
2022-12-13T20:31:14.277Z,34.89
2022-12-13T20:33:42.384Z,34.32
2022-12-13T20:36:27.100Z,33.96
2022-12-13T20:38:56.086Z,33.64
2022-12-13T20:41:23.745Z,34.39
2022-12-13T20:43:54.865Z,34.27
2022-12-13T20:46:21.971Z,34.80
2022-12-13T20:48:49.274Z,33.63
2022-12-13T20:51:20.099Z,34.04
2022-12-13T20:53:48.255Z,34.34
2022-12-13T20:56:19.957Z,34.13
2022-12-13T20:58:46.972Z,34.79
2022-12-13T21:01:15.478Z,34.23
2022-12-13T21:03:42.181Z,33.69
2022-12-13T21:06:08.877Z,33.68
2022-12-13T21:09:00.058Z,34.37
2022-12-13T21:11:29.031Z,33.80
2022-12-13T21:13:55.779Z,34.00
2022-12-13T21:16:23.565Z,34.61
2022-12-13T21:18:52.020Z,33.73
2022-12-13T21:21:18.848Z,34.88
2022-12-13T21:23:45.420Z,35.04
2022-12-13T21:26:12.010Z,34.81
2022-12-13T21:28:38.663Z,34.11
2022-12-13T21:31:06.829Z,34.36
2022-12-13T21:33:35.430Z,34.44
2022-12-13T21:36:09.002Z,34.89
2022-12-13T21:38:35.561Z,34.84
2022-12-13T21:41:02.213Z,34.69
2022-12-13T21:43:37.999Z,35.40
2022-12-13T21:46:10.037Z,33.77
2022-12-13T21:48:38.012Z,34.42
2022-12-13T21:51:05.326Z,33.94
2022-12-13T21:53:32.564Z,32.90
2022-12-13T21:56:17.532Z,33.85
2022-12-13T21:59:03.534Z,33.03
2022-12-13T22:01:51.363Z,33.53
2022-12-13T22:04:19.907Z,33.13
2022-12-13T22:06:46.545Z,32.83
2022-12-13T22:09:14.127Z,32.10
2022-12-13T22:11:40.891Z,32.40
2022-12-13T22:14:07.560Z,31.92
2022-12-13T22:16:34.469Z,31.09
2022-12-13T22:19:01.141Z,30.87
2022-12-13T22:21:27.729Z,31.13
2022-12-13T22:23:55.544Z,30.98
2022-12-13T22:26:23.376Z,31.29
2022-12-13T22:28:51.035Z,30.52
2022-12-13T22:31:18.862Z,33.47
2022-12-13T22:33:45.851Z,34.49
2022-12-13T22:36:12.474Z,32.87
2022-12-13T22:38:39.012Z,31.37
2022-12-13T22:41:06.505Z,31.46
2022-12-13T22:43:34.914Z,31.32
2022-12-13T22:46:06.238Z,30.64
2022-12-13T22:48:32.829Z,30.16
2022-12-13T22:51:07.475Z,31.16
2022-12-13T22:53:34.140Z,31.17
2022-12-13T22:56:08.466Z,31.05
2022-12-13T22:58:35.863Z,29.50
2022-12-13T23:01:10.474Z,29.67
2022-12-13T23:03:38.149Z,30.75
2022-12-13T23:06:05.405Z,29.81
2022-12-13T23:08:31.952Z,29.88
2022-12-13T23:11:17.712Z,29.11
2022-12-13T23:13:44.398Z,29.43
2022-12-13T23:16:15.035Z,29.55
2022-12-13T23:18:41.726Z,28.68
2022-12-13T23:21:08.284Z,28.46
2022-12-13T23:23:34.912Z,28.71
2022-12-13T23:26:10.694Z,28.08
2022-12-13T23:28:37.585Z,28.50
2022-12-13T23:31:04.825Z,27.99
2022-12-13T23:33:31.432Z,28.33
2022-12-13T23:36:01.196Z,28.24
2022-12-13T23:38:29.703Z,27.91
2022-12-13T23:41:07.600Z,28.24
2022-12-13T23:43:35.290Z,27.26
2022-12-13T23:46:02.871Z,26.82
2022-12-13T23:48:29.940Z,27.80
2022-12-13T23:50:57.226Z,26.85
2022-12-13T23:53:24.038Z,27.04
2022-12-13T23:55:50.697Z,26.37
2022-12-13T23:58:18.346Z,26.64
